Time;durP1;ratioP1;P1;durP2;ratioP2;P2;SDS_P1;SDS_P2;PMS_P1;PMS_P2;Temp;Humidity;BMP_temperature;BMP_pressure;BME280_temperature;BME280_humidity;BME280_pressure;Samples;Min_cycle;Max_cycle;Signal;HPM_P1;HPM_P2
2023/07/05 00:01:14;;;;;;;18.30;4.10;;;18.20;96.60;;;;;;5032261;28;20255;-69
2023/07/05 00:03:40;;;;;;;12.02;4.15;;;18.20;96.50;;;;;;5048723;28;20048;-69
2023/07/05 00:06:06;;;;;;;15.32;4.72;;;18.30;96.50;;;;;;5032149;28;20065;-69
2023/07/05 00:08:33;;;;;;;14.65;4.65;;;18.30;96.60;;;;;;5033320;28;20034;-69
2023/07/05 00:11:06;;;;;;;15.23;4.22;;;18.20;96.60;;;;;;5049263;28;20029;-68
2023/07/05 00:13:33;;;;;;;12.60;4.07;;;18.30;97.00;;;;;;5032844;28;20555;-69
2023/07/05 00:15:59;;;;;;;13.52;3.90;;;18.30;97.10;;;;;;5032168;28;20104;-68
2023/07/05 00:18:25;;;;;;;10.05;3.78;;;18.30;97.20;;;;;;5033142;28;20037;-68
2023/07/05 00:20:51;;;;;;;8.38;4.05;;;18.30;97.00;;;;;;5032931;28;20036;-69
2023/07/05 00:23:17;;;;;;;10.30;4.00;;;18.40;96.90;;;;;;5032910;28;20025;-68
2023/07/05 00:25:42;;;;;;;9.05;3.13;;;18.20;96.60;;;;;;5033377;28;20032;-68
2023/07/05 00:28:08;;;;;;;11.70;3.95;;;18.20;96.80;;;;;;5033231;28;20115;-68
2023/07/05 00:30:33;;;;;;;18.15;4.13;;;18.20;96.80;;;;;;5032786;28;20046;-69
2023/07/05 00:32:59;;;;;;;14.55;4.05;;;18.30;96.60;;;;;;5032820;28;20041;-68
2023/07/05 00:35:25;;;;;;;11.60;4.13;;;18.30;96.70;;;;;;5031758;28;20056;-69
2023/07/05 00:37:50;;;;;;;14.00;4.00;;;18.20;96.70;;;;;;5048767;28;20116;-69
2023/07/05 00:40:16;;;;;;;11.23;4.13;;;18.20;96.60;;;;;;5032669;28;20029;-68
2023/07/05 00:42:42;;;;;;;11.77;3.42;;;18.30;96.60;;;;;;5032596;28;20045;-68
2023/07/05 00:45:11;;;;;;;15.27;4.85;;;18.30;96.50;;;;;;5032672;28;20095;-68
2023/07/05 00:47:40;;;;;;;11.25;3.60;;;18.30;96.50;;;;;;5048029;28;20029;-69
2023/07/05 00:50:24;;;;;;;10.85;4.18;;;18.30;96.50;;;;;;5033061;28;20070;-67
2023/07/05 00:52:52;;;;;;;8.43;3.72;;;18.30;96.50;;;;;;5032837;28;20452;-68
2023/07/05 00:55:18;;;;;;;11.00;3.53;;;18.20;96.40;;;;;;5032367;28;20059;-68
2023/07/05 00:57:45;;;;;;;16.25;4.50;;;18.40;96.50;;;;;;5032332;28;20030;-70
2023/07/05 01:00:15;;;;;;;11.77;4.25;;;18.30;96.70;;;;;;5032046;28;20038;-69
2023/07/05 01:02:45;;;;;;;8.25;3.95;;;18.30;97.50;;;;;;5032132;28;20033;-68
2023/07/05 01:05:12;;;;;;;8.70;4.28;;;18.30;97.50;;;;;;5031990;28;20022;-69
2023/07/05 01:07:38;;;;;;;14.00;4.43;;;18.30;97.90;;;;;;5032328;28;20025;-69
2023/07/05 01:10:05;;;;;;;8.32;3.65;;;18.30;97.90;;;;;;5031912;28;20133;-70
2023/07/05 01:13:13;;;;;;;9.57;4.00;;;18.40;98.00;;;;;;5031928;28;20037;-70
2023/07/05 01:15:57;;;;;;;10.65;3.90;;;18.30;97.90;;;;;;5031957;28;20040;-69
2023/07/05 01:18:31;;;;;;;11.80;3.80;;;18.40;97.60;;;;;;5031734;28;20037;-69
2023/07/05 01:20:57;;;;;;;10.95;3.42;;;18.20;97.60;;;;;;5031930;28;20036;-69
2023/07/05 01:24:05;;;;;;;10.48;3.50;;;18.20;97.70;;;;;;5031660;28;20030;-69
2023/07/05 01:26:30;;;;;;;7.38;3.50;;;18.20;97.50;;;;;;5031426;28;20041;-68
2023/07/05 01:29:27;;;;;;;4.95;3.47;;;18.20;97.90;;;;;;5032092;28;20372;-69
2023/07/05 01:32:02;;;;;;;15.60;4.07;;;18.20;97.60;;;;;;5012229;28;20050;-69
2023/07/05 01:34:58;;;;;;;17.45;3.63;;;18.20;98.10;;;;;;5030355;28;20034;-70
2023/07/05 01:37:43;;;;;;;11.27;4.20;;;18.20;97.80;;;;;;5031462;28;20077;-69
2023/07/05 01:40:15;;;;;;;13.73;3.63;;;18.10;97.80;;;;;;5031810;28;20026;-69
2023/07/05 01:42:44;;;;;;;10.73;3.40;;;18.10;97.60;;;;;;5031341;28;20103;-68
2023/07/05 01:45:10;;;;;;;11.73;4.05;;;18.20;97.50;;;;;;5031189;28;20030;-69
2023/07/05 01:48:04;;;;;;;20.63;3.55;;;18.20;97.70;;;;;;5031396;28;20033;-68
2023/07/05 01:50:36;;;;;;;13.40;3.95;;;18.20;97.60;;;;;;5031226;28;25676;-71
2023/07/05 01:53:18;;;;;;;11.02;3.90;;;18.10;97.40;;;;;;5031697;28;20033;-70
2023/07/05 01:56:03;;;;;;;14.65;4.07;;;18.10;97.20;;;;;;5031092;28;20079;-69
2023/07/05 01:58:34;;;;;;;9.98;3.65;;;18.00;97.20;;;;;;5031143;28;20063;-69
2023/07/05 02:01:04;;;;;;;7.07;3.45;;;18.00;97.40;;;;;;5030097;28;20033;-68
2023/07/05 02:03:30;;;;;;;10.85;3.70;;;18.00;98.00;;;;;;5031137;28;20045;-69
2023/07/05 02:05:56;;;;;;;12.90;4.28;;;18.00;97.90;;;;;;5031261;28;20033;-69
2023/07/05 02:08:27;;;;;;;10.18;4.40;;;18.00;98.10;;;;;;5031157;28;20096;-67
2023/07/05 02:10:54;;;;;;;12.27;4.18;;;17.90;98.30;;;;;;5063971;28;20030;-69
2023/07/05 02:13:20;;;;;;;9.35;4.03;;;17.80;98.30;;;;;;5030006;28;20025;-67
2023/07/05 02:15:50;;;;;;;12.48;3.92;;;17.80;98.70;;;;;;5030826;28;20034;-68
2023/07/05 02:18:16;;;;;;;13.18;3.70;;;17.80;98.80;;;;;;5030802;28;20033;-67
2023/07/05 02:20:42;;;;;;;14.48;4.05;;;17.80;98.70;;;;;;5030799;28;20044;-69
2023/07/05 02:23:08;;;;;;;17.20;5.18;;;17.70;99.00;;;;;;5031440;28;20030;-67
2023/07/05 02:25:35;;;;;;;12.40;4.22;;;17.70;99.60;;;;;;5030787;28;20033;-68
2023/07/05 02:28:05;;;;;;;11.95;3.95;;;17.70;99.90;;;;;;5030937;28;20041;-68
2023/07/05 02:30:34;;;;;;;12.43;4.65;;;17.70;99.80;;;;;;5030399;28;20132;-69
2023/07/05 02:33:00;;;;;;;10.25;4.57;;;17.80;99.80;;;;;;5030505;28;20045;-69
2023/07/05 02:35:26;;;;;;;13.15;4.63;;;17.70;99.90;;;;;;5029563;28;20018;-68
2023/07/05 02:37:51;;;;;;;10.70;4.88;;;17.60;99.90;;;;;;5030568;28;20045;-67
2023/07/05 02:40:17;;;;;;;10.00;3.95;;;17.70;99.90;;;;;;5030424;28;20486;-68
2023/07/05 02:42:43;;;;;;;11.90;4.07;;;17.60;99.90;;;;;;5030588;28;20467;-68
2023/07/05 02:45:09;;;;;;;15.55;5.00;;;17.60;99.90;;;;;;5029342;28;20322;-68
2023/07/05 02:47:34;;;;;;;7.13;4.32;;;17.50;99.90;;;;;;5029374;28;20133;-68
2023/07/05 02:50:00;;;;;;;9.43;4.50;;;17.50;99.90;;;;;;5031029;28;20109;-68
2023/07/05 02:52:26;;;;;;;6.72;3.70;;;17.50;99.90;;;;;;5029434;28;20025;-68
2023/07/05 02:54:52;;;;;;;7.13;4.30;;;17.50;99.90;;;;;;5030166;28;20036;-68
2023/07/05 02:57:17;;;;;;;6.43;3.72;;;17.50;99.90;;;;;;5030206;28;20030;-68
2023/07/05 02:59:43;;;;;;;10.45;4.32;;;17.40;99.90;;;;;;5030308;28;20041;-68
2023/07/05 03:02:10;;;;;;;7.63;4.05;;;17.40;99.90;;;;;;5030591;28;20014;-68
2023/07/05 03:04:37;;;;;;;9.38;4.70;;;17.40;99.90;;;;;;5030123;28;20345;-68
2023/07/05 03:07:03;;;;;;;15.55;4.95;;;17.40;99.90;;;;;;5029975;28;20045;-69
2023/07/05 03:09:28;;;;;;;12.43;4.35;;;17.40;99.90;;;;;;5028911;28;20029;-68
2023/07/05 03:11:54;;;;;;;10.75;5.07;;;17.50;99.90;;;;;;5030012;28;20045;-68
2023/07/05 03:14:20;;;;;;;8.82;4.78;;;17.40;99.90;;;;;;5029992;28;20025;-68
2023/07/05 03:16:45;;;;;;;12.65;5.05;;;17.40;99.90;;;;;;5030304;28;20026;-68
2023/07/05 03:19:11;;;;;;;18.33;5.22;;;17.40;99.90;;;;;;5029922;28;20035;-67
2023/07/05 03:21:37;;;;;;;9.35;5.40;;;17.40;99.90;;;;;;5029855;28;20026;-67
2023/07/05 03:24:03;;;;;;;13.25;5.43;;;17.40;99.90;;;;;;5029930;28;20379;-68
2023/07/05 03:26:29;;;;;;;13.48;4.72;;;17.50;99.90;;;;;;5028654;28;20045;-68
2023/07/05 03:28:54;;;;;;;9.07;4.57;;;17.40;99.90;;;;;;5030503;28;20049;-68
2023/07/05 03:31:20;;;;;;;7.60;4.20;;;17.50;99.90;;;;;;5029746;28;20562;-68
2023/07/05 03:33:46;;;;;;;8.95;4.50;;;17.40;99.90;;;;;;5029739;28;20029;-68
2023/07/05 03:36:15;;;;;;;7.70;4.72;;;17.40;99.90;;;;;;5028593;28;20033;-67
2023/07/05 03:38:41;;;;;;;11.80;5.25;;;17.40;99.90;;;;;;5028772;28;20414;-68
2023/07/05 03:41:13;;;;;;;11.30;4.72;;;17.40;99.90;;;;;;5030186;28;20025;-68
2023/07/05 03:43:40;;;;;;;9.18;5.30;;;17.40;99.90;;;;;;5029826;28;20045;-68
2023/07/05 03:46:09;;;;;;;10.63;5.38;;;17.40;99.90;;;;;;5029671;28;20022;-68
2023/07/05 03:48:37;;;;;;;9.02;4.78;;;17.40;99.90;;;;;;5030261;28;20487;-67
2023/07/05 03:51:03;;;;;;;11.90;5.18;;;17.40;99.90;;;;;;5033469;28;20038;-68
2023/07/05 03:53:29;;;;;;;13.45;7.07;;;17.40;99.90;;;;;;5032193;28;20087;-68
2023/07/05 03:56:01;;;;;;;11.98;6.18;;;17.50;99.90;;;;;;5032659;28;20089;-69
2023/07/05 03:58:27;;;;;;;10.95;5.70;;;17.50;99.90;;;;;;5033302;28;20037;-68
2023/07/05 04:00:53;;;;;;;11.13;4.63;;;17.50;99.90;;;;;;5033307;28;20046;-68
2023/07/05 04:03:19;;;;;;;12.25;5.78;;;17.50;99.90;;;;;;5032071;28;20080;-67
2023/07/05 04:05:45;;;;;;;11.05;5.32;;;17.40;99.90;;;;;;5032982;28;20060;-68
2023/07/05 04:08:11;;;;;;;12.18;5.63;;;17.50;99.90;;;;;;5032947;28;20029;-69
2023/07/05 04:10:37;;;;;;;13.05;5.38;;;17.50;99.90;;;;;;5033298;28;20402;-69
2023/07/05 04:13:02;;;;;;;11.40;5.68;;;17.50;99.90;;;;;;5033040;28;20033;-68
2023/07/05 04:15:28;;;;;;;8.98;5.18;;;17.50;99.90;;;;;;5032742;28;20034;-67
2023/07/05 04:17:54;;;;;;;15.30;5.90;;;17.50;99.90;;;;;;5032606;28;20095;-68
2023/07/05 04:20:19;;;;;;;13.45;5.90;;;17.50;99.90;;;;;;5032711;28;20097;-67
2023/07/05 04:22:45;;;;;;;10.10;5.53;;;17.50;99.90;;;;;;5033009;28;20026;-68
2023/07/05 04:25:11;;;;;;;10.05;6.00;;;17.50;99.90;;;;;;5032854;28;20107;-67
2023/07/05 04:27:36;;;;;;;12.38;6.47;;;17.60;99.90;;;;;;5031744;28;20068;-67
2023/07/05 04:30:03;;;;;;;17.00;6.40;;;17.70;99.90;;;;;;5032849;28;20049;-68
2023/07/05 04:32:30;;;;;;;10.88;5.78;;;17.70;99.90;;;;;;5025576;28;20034;-68
2023/07/05 04:34:55;;;;;;;11.20;6.10;;;17.70;99.90;;;;;;5033211;28;20051;-67
2023/07/05 04:37:21;;;;;;;16.33;6.28;;;17.80;99.90;;;;;;5032560;28;20419;-68
2023/07/05 04:39:47;;;;;;;11.57;5.82;;;17.80;99.90;;;;;;5032571;28;20065;-68
2023/07/05 04:42:12;;;;;;;20.65;6.30;;;17.80;99.90;;;;;;5032545;28;20037;-68
2023/07/05 04:44:39;;;;;;;13.23;5.70;;;17.80;99.90;;;;;;5031160;28;20037;-68
2023/07/05 04:47:05;;;;;;;11.15;5.40;;;17.80;99.90;;;;;;5032709;28;20404;-68
2023/07/05 04:49:30;;;;;;;17.20;6.40;;;17.70;99.90;;;;;;5031191;28;20037;-68
2023/07/05 04:51:56;;;;;;;17.00;6.70;;;17.60;99.90;;;;;;5031140;28;20441;-68
2023/07/05 04:54:22;;;;;;;11.93;6.60;;;17.60;99.90;;;;;;5032378;28;20034;-68
2023/07/05 04:56:48;;;;;;;10.52;6.45;;;17.60;99.90;;;;;;5032318;28;20033;-69
2023/07/05 04:59:13;;;;;;;13.15;6.28;;;17.60;99.90;;;;;;5032241;28;20029;-69
2023/07/05 05:01:40;;;;;;;13.65;6.38;;;17.50;99.90;;;;;;5032071;28;20163;-69
2023/07/05 05:04:06;;;;;;;12.77;6.80;;;17.50;99.90;;;;;;5031786;28;20026;-69
2023/07/05 05:06:31;;;;;;;16.70;6.78;;;17.50;99.90;;;;;;5031753;28;20033;-70
2023/07/05 05:08:57;;;;;;;12.10;6.35;;;17.50;99.90;;;;;;5030542;28;20030;-69
2023/07/05 05:11:26;;;;;;;10.98;6.13;;;17.50;99.90;;;;;;5030776;28;20022;-68
2023/07/05 05:13:52;;;;;;;13.13;6.32;;;17.50;99.90;;;;;;5032449;28;20518;-68
2023/07/05 05:16:18;;;;;;;10.65;6.43;;;17.60;99.90;;;;;;5031501;28;20045;-70
2023/07/05 05:18:44;;;;;;;11.60;6.03;;;17.60;99.90;;;;;;5031540;28;20124;-67
2023/07/05 05:21:10;;;;;;;11.70;6.15;;;17.60;99.90;;;;;;5031548;28;20116;-68
2023/07/05 05:23:36;;;;;;;10.43;6.00;;;17.70;99.90;;;;;;5031299;28;20045;-68
2023/07/05 05:26:02;;;;;;;12.80;5.90;;;17.60;99.90;;;;;;5032244;28;20032;-69
2023/07/05 05:28:29;;;;;;;14.05;6.38;;;17.60;99.90;;;;;;5031465;28;20107;-68
2023/07/05 05:31:09;;;;;;;13.95;6.70;;;17.70;99.90;;;;;;5031506;28;20030;-69
2023/07/05 05:33:36;;;;;;;16.73;6.90;;;17.60;99.90;;;;;;5063279;28;20060;-68
2023/07/05 05:36:03;;;;;;;11.93;6.22;;;17.70;99.90;;;;;;5031211;28;20112;-66
2023/07/05 05:38:29;;;;;;;13.02;6.70;;;17.60;99.90;;;;;;5030937;28;20448;-66
2023/07/05 05:41:01;;;;;;;13.85;6.93;;;17.60;99.90;;;;;;5031530;28;20043;-66
2023/07/05 05:43:27;;;;;;;16.85;7.30;;;17.70;99.90;;;;;;5029802;28;20037;-66
2023/07/05 05:45:53;;;;;;;12.65;6.68;;;17.60;99.90;;;;;;5031123;28;20492;-66
2023/07/05 05:48:18;;;;;;;13.65;6.80;;;17.60;99.90;;;;;;5030855;28;20027;-66
2023/07/05 05:50:45;;;;;;;15.88;6.75;;;17.50;99.90;;;;;;5030872;28;20044;-67
2023/07/05 05:53:11;;;;;;;13.60;6.55;;;17.50;99.90;;;;;;5031285;28;20082;-66
2023/07/05 05:55:38;;;;;;;10.27;6.40;;;17.40;99.90;;;;;;5030995;28;20410;-70
2023/07/05 05:58:05;;;;;;;15.53;6.23;;;17.30;99.90;;;;;;5030638;28;20132;-69
2023/07/05 06:00:31;;;;;;;11.63;6.55;;;17.20;99.90;;;;;;5030669;28;20129;-68
2023/07/05 06:02:57;;;;;;;10.18;5.63;;;17.20;99.90;;;;;;5029794;28;20132;-68
2023/07/05 06:05:23;;;;;;;12.82;6.35;;;17.00;99.90;;;;;;5029653;28;20026;-68
2023/07/05 06:07:48;;;;;;;10.90;6.03;;;16.90;99.90;;;;;;5031232;28;20084;-68
2023/07/05 06:10:14;;;;;;;15.98;6.45;;;16.90;99.90;;;;;;5029404;28;20468;-68
2023/07/05 06:12:41;;;;;;;8.88;5.50;;;16.90;99.90;;;;;;5029857;28;20061;-67
2023/07/05 06:15:10;;;;;;;8.70;4.68;;;16.80;99.90;;;;;;5029588;28;20417;-67
2023/07/05 06:17:35;;;;;;;8.45;4.68;;;16.90;99.90;;;;;;5035020;28;20044;-70
2023/07/05 06:20:01;;;;;;;9.73;4.68;;;17.00;99.90;;;;;;5050765;28;20100;-68
2023/07/05 06:22:26;;;;;;;7.70;4.63;;;16.90;99.90;;;;;;5049880;28;20033;-69
2023/07/05 06:24:52;;;;;;;9.55;4.10;;;16.90;99.90;;;;;;5049971;28;20036;-69
2023/07/05 06:27:18;;;;;;;5.43;3.47;;;17.00;99.90;;;;;;5050222;28;20093;-69
2023/07/05 06:29:43;;;;;;;10.02;4.75;;;17.00;99.90;;;;;;5049148;28;20025;-67
2023/07/05 06:32:09;;;;;;;5.82;3.30;;;17.00;99.90;;;;;;5050658;28;20028;-69
2023/07/05 06:34:35;;;;;;;7.00;3.42;;;17.00;99.90;;;;;;5049776;28;20183;-69
2023/07/05 06:37:00;;;;;;;5.90;2.97;;;17.10;99.90;;;;;;5050148;28;20037;-69
2023/07/05 06:39:26;;;;;;;5.65;2.80;;;17.00;99.90;;;;;;5048731;28;20029;-68
2023/07/05 06:41:52;;;;;;;8.48;2.80;;;17.00;99.90;;;;;;5049832;28;20029;-68
2023/07/05 06:44:17;;;;;;;5.78;2.72;;;17.10;99.90;;;;;;5048408;28;20041;-67
2023/07/05 06:46:43;;;;;;;5.18;3.08;;;17.00;99.90;;;;;;5049444;28;20031;-68
2023/07/05 06:49:08;;;;;;;5.70;2.75;;;17.10;99.90;;;;;;5049674;28;20479;-68
2023/07/05 06:51:34;;;;;;;5.90;2.80;;;17.10;99.90;;;;;;5049021;28;20136;-66
2023/07/05 06:54:00;;;;;;;7.50;3.17;;;17.10;99.90;;;;;;5049851;28;20069;-68
2023/07/05 06:56:25;;;;;;;12.30;2.88;;;17.20;99.90;;;;;;5049871;28;20025;-66
2023/07/05 06:58:51;;;;;;;10.70;3.58;;;17.30;99.90;;;;;;5050179;28;20029;-68
2023/07/05 07:01:17;;;;;;;4.60;3.22;;;17.40;99.90;;;;;;5049790;28;20025;-66
2023/07/05 07:03:42;;;;;;;7.55;4.72;;;17.50;99.90;;;;;;5049933;28;20119;-70
2023/07/05 07:06:08;;;;;;;8.20;3.08;;;17.60;99.90;;;;;;5049743;28;20086;-65
2023/07/05 07:08:35;;;;;;;8.38;4.30;;;17.70;99.90;;;;;;5031976;28;20033;-65
2023/07/05 07:11:05;;;;;;;6.78;4.13;;;17.80;99.90;;;;;;5050110;28;20024;-67
2023/07/05 07:13:32;;;;;;;6.20;3.28;;;17.90;99.90;;;;;;5048699;28;20036;-65
2023/07/05 07:16:25;;;;;;;7.57;3.13;;;17.90;99.90;;;;;;5049652;28;20028;-68
2023/07/05 07:18:51;;;;;;;4.35;2.33;;;18.00;99.90;;;;;;5045823;28;20052;-67
2023/07/05 07:21:18;;;;;;;2.30;1.75;;;18.00;99.90;;;;;;5049740;28;20037;-68
2023/07/05 07:23:48;;;;;;;3.53;2.17;;;18.00;99.90;;;;;;5049586;28;20037;-67
2023/07/05 07:26:17;;;;;;;8.77;4.05;;;18.00;99.90;;;;;;5086094;28;20029;-67
2023/07/05 07:28:48;;;;;;;3.08;1.48;;;18.00;99.90;;;;;;5054108;28;20021;-67
2023/07/05 07:31:20;;;;;;;3.22;1.90;;;17.90;99.90;;;;;;5085998;28;20029;-68
2023/07/05 07:33:47;;;;;;;5.22;2.17;;;17.70;99.90;;;;;;5085563;28;20067;-68
2023/07/05 07:36:16;;;;;;;5.30;2.10;;;17.60;99.90;;;;;;5053445;28;20533;-69
2023/07/05 07:38:42;;;;;;;2.97;1.70;;;17.50;99.40;;;;;;5053025;28;20064;-68
2023/07/05 07:41:32;;;;;;;3.42;2.30;;;17.50;99.50;;;;;;5052875;28;20095;-69
2023/07/05 07:44:01;;;;;;;5.50;2.58;;;17.50;99.60;;;;;;5045921;28;20041;-65
2023/07/05 07:46:29;;;;;;;4.68;2.33;;;17.50;99.90;;;;;;5053376;28;20029;-65
2023/07/05 07:48:56;;;;;;;5.28;2.03;;;17.60;99.60;;;;;;5053506;28;20028;-66
2023/07/05 07:51:25;;;;;;;6.78;2.40;;;17.80;99.90;;;;;;5053298;28;20359;-69
2023/07/05 07:53:51;;;;;;;3.45;1.98;;;18.00;99.90;;;;;;5085556;28;20052;-67
2023/07/05 07:56:19;;;;;;;5.30;2.50;;;18.30;99.70;;;;;;5053131;28;20035;-70
2023/07/05 07:58:48;;;;;;;4.60;2.30;;;18.40;99.50;;;;;;5052484;28;20017;-67
2023/07/05 08:01:26;;;;;;;4.53;2.63;;;18.40;98.80;;;;;;5051644;28;20029;-69
2023/07/05 08:03:57;;;;;;;4.15;2.05;;;18.50;98.30;;;;;;5051644;28;20033;-68
2023/07/05 08:06:34;;;;;;;6.50;2.38;;;18.70;97.70;;;;;;5052294;28;20029;-68
2023/07/05 08:09:00;;;;;;;;;;;19.00;97.50;;;;;;5053548;28;20029;-67
2023/07/05 08:11:26;;;;;;;3.20;2.20;;;19.00;97.30;;;;;;5053163;28;19966;-67
2023/07/05 08:13:51;;;;;;;8.25;2.50;;;19.20;96.80;;;;;;5053237;28;20414;-67
2023/07/05 08:16:17;;;;;;;9.73;3.35;;;19.30;96.90;;;;;;5052751;28;20033;-68
2023/07/05 08:18:44;;;;;;;5.22;2.30;;;19.50;96.40;;;;;;5053383;28;20371;-75
2023/07/05 08:21:10;;;;;;;3.67;2.70;;;19.60;96.30;;;;;;5052898;28;20033;-68
2023/07/05 08:23:36;;;;;;;3.30;1.90;;;19.80;95.70;;;;;;5051149;28;20052;-68
2023/07/05 08:26:02;;;;;;;4.78;2.35;;;20.00;95.90;;;;;;5053072;28;20467;-67
2023/07/05 08:28:28;;;;;;;4.88;1.92;;;20.20;94.70;;;;;;5051556;28;20102;-67
2023/07/05 08:31:04;;;;;;;7.30;2.38;;;20.40;94.30;;;;;;5052363;28;20471;-67
2023/07/05 08:33:31;;;;;;;5.45;2.25;;;20.40;93.60;;;;;;5052175;28;20060;-66
2023/07/05 08:36:07;;;;;;;4.43;2.17;;;20.60;93.50;;;;;;5051351;28;20190;-67
2023/07/05 08:38:33;;;;;;;6.65;1.70;;;21.20;92.50;;;;;;5052152;28;20055;-67
2023/07/05 08:41:18;;;;;;;10.48;3.15;;;22.20;91.90;;;;;;5052559;28;20036;-67
2023/07/05 08:43:54;;;;;;;8.13;2.17;;;22.90;90.70;;;;;;5050980;28;20048;-67
2023/07/05 08:46:21;;;;;;;3.72;1.80;;;23.30;89.00;;;;;;5051744;28;20114;-68
2023/07/05 08:48:48;;;;;;;3.88;2.05;;;23.10;87.90;;;;;;5051010;28;20479;-65
2023/07/05 08:51:17;;;;;;;7.55;1.83;;;23.10;87.00;;;;;;5052033;28;20412;-67
2023/07/05 08:53:51;;;;;;;6.80;2.00;;;23.60;86.10;;;;;;5052337;28;20036;-67
2023/07/05 08:56:25;;;;;;;3.97;2.15;;;24.10;85.10;;;;;;5084496;28;20491;-67
2023/07/05 08:58:58;;;;;;;6.22;2.50;;;24.50;84.20;;;;;;5052302;28;20075;-67
2023/07/05 09:01:28;;;;;;;2.90;1.98;;;24.90;81.80;;;;;;5050799;28;20355;-68
2023/07/05 09:03:54;;;;;;;4.95;1.85;;;25.20;79.50;;;;;;5051675;28;20426;-67
2023/07/05 09:06:49;;;;;;;4.38;2.53;;;25.30;78.90;;;;;;5051961;28;20045;-67
2023/07/05 09:09:42;;;;;;;4.38;1.73;;;25.70;78.60;;;;;;5051771;28;20033;-67
2023/07/05 09:12:20;;;;;;;3.97;1.83;;;24.80;76.50;;;;;;5051693;28;20111;-67
2023/07/05 09:15:12;;;;;;;6.20;2.60;;;24.00;76.00;;;;;;5051777;28;20071;-70
2023/07/05 09:17:50;;;;;;;5.32;2.35;;;23.70;76.30;;;;;;5051328;28;20037;-69
2023/07/05 09:20:54;;;;;;;5.95;2.17;;;23.70;76.80;;;;;;5051394;28;20025;-67
2023/07/05 09:23:31;;;;;;;3.25;2.10;;;23.90;76.70;;;;;;5051155;28;20054;-70
2023/07/05 09:26:29;;;;;;;6.13;2.30;;;23.80;77.20;;;;;;5051724;28;20021;-69
2023/07/05 09:29:14;;;;;;;3.90;2.20;;;24.30;77.50;;;;;;5051252;28;20455;-68
2023/07/05 09:31:44;;;;;;;6.22;2.50;;;24.10;75.70;;;;;;5051573;28;20033;-68
2023/07/05 09:34:28;;;;;;;2.90;1.75;;;23.50;72.80;;;;;;5083377;28;20456;-67
2023/07/05 09:36:53;;;;;;;6.30;2.08;;;23.10;73.50;;;;;;5051201;28;20051;-67
2023/07/05 09:39:37;;;;;;;4.38;1.90;;;22.70;74.80;;;;;;5050903;28;20037;-66
2023/07/05 09:42:06;;;;;;;12.25;2.08;;;22.60;75.90;;;;;;5050096;28;20371;-67
2023/07/05 09:44:32;;;;;;;5.22;2.03;;;22.50;76.60;;;;;;5051123;28;20052;-67
2023/07/05 09:46:58;;;;;;;7.70;1.90;;;22.50;76.00;;;;;;5051156;28;20386;-69
2023/07/05 09:49:27;;;;;;;10.20;2.05;;;22.30;76.20;;;;;;5049824;28;20044;-68
2023/07/05 09:51:53;;;;;;;6.05;2.17;;;22.50;76.30;;;;;;5050809;28;20040;-67
2023/07/05 09:54:28;;;;;;;5.32;2.17;;;22.60;75.70;;;;;;5050743;28;20037;-67
2023/07/05 09:57:04;;;;;;;5.90;1.60;;;22.50;76.00;;;;;;5050885;28;20037;-67
2023/07/05 09:59:31;;;;;;;2.95;2.00;;;22.40;76.10;;;;;;5050477;28;20031;-67
2023/07/05 10:02:12;;;;;;;5.53;2.15;;;22.60;75.30;;;;;;5051333;28;20425;-72
2023/07/05 10:04:44;;;;;;;3.35;1.88;;;22.60;75.10;;;;;;5050766;28;20036;-68
2023/07/05 10:07:21;;;;;;;3.00;1.98;;;22.60;74.50;;;;;;5049419;28;20028;-68
2023/07/05 10:10:10;;;;;;;5.13;1.90;;;22.60;74.50;;;;;;5049408;28;20090;-67
2023/07/05 10:12:40;;;;;;;4.97;2.05;;;22.70;74.70;;;;;;5050157;28;20557;-66
2023/07/05 10:15:23;;;;;;;3.90;1.88;;;22.70;76.00;;;;;;5050385;28;20046;-65
2023/07/05 10:17:51;;;;;;;5.82;1.50;;;22.80;74.90;;;;;;5050214;28;20391;-66
2023/07/05 10:20:27;;;;;;;;;;;22.70;74.80;;;;;;5050536;28;20020;-65
2023/07/05 10:23:05;;;;;;;2.70;1.63;;;22.70;75.50;;;;;;5049130;28;19959;-67
2023/07/05 10:25:38;;;;;;;5.72;1.58;;;22.90;75.40;;;;;;5050076;28;20029;-68
2023/07/05 10:28:05;;;;;;;12.35;1.90;;;22.60;75.10;;;;;;5049992;28;20745;-69
2023/07/05 10:30:31;;;;;;;5.50;1.60;;;22.40;74.80;;;;;;5050181;28;20029;-70
2023/07/05 10:33:15;;;;;;;5.93;2.13;;;22.10;75.50;;;;;;5049850;28;20048;-67
2023/07/05 10:35:51;;;;;;;6.53;1.52;;;21.70;75.90;;;;;;5049840;28;20120;-68
2023/07/05 10:38:26;;;;;;;3.80;1.63;;;21.50;76.80;;;;;;5049724;28;20504;-67
2023/07/05 10:40:55;;;;;;;4.18;1.60;;;21.10;77.70;;;;;;5049449;28;20029;-66
2023/07/05 10:43:22;;;;;;;2.95;1.38;;;21.00;78.50;;;;;;5049859;28;20051;-65
2023/07/05 10:45:49;;;;;;;3.78;2.03;;;21.20;78.90;;;;;;5049740;28;20542;-67
2023/07/05 10:48:33;;;;;;;4.25;1.23;;;21.20;79.50;;;;;;5050017;28;20075;-66
2023/07/05 10:50:59;;;;;;;4.78;1.75;;;21.50;79.60;;;;;;5049738;28;20049;-67
2023/07/05 10:53:27;;;;;;;4.60;1.60;;;21.70;78.20;;;;;;5050049;28;20076;-68
2023/07/05 10:56:05;;;;;;;4.07;1.77;;;21.80;78.50;;;;;;5049958;28;20090;-67
2023/07/05 10:59:20;;;;;;;8.05;1.77;;;21.90;78.50;;;;;;5047926;28;20162;-66
2023/07/05 11:01:54;;;;;;;2.85;1.50;;;22.10;78.20;;;;;;5044846;28;20041;-67
2023/07/05 11:04:24;;;;;;;3.35;1.15;;;22.20;78.00;;;;;;5049638;28;20029;-67
2023/07/05 11:06:52;;;;;;;3.70;1.55;;;22.40;77.10;;;;;;5049794;28;20033;-67
2023/07/05 11:09:19;;;;;;;5.10;0.98;;;22.40;77.10;;;;;;5049616;28;20434;-68
2023/07/05 11:11:50;;;;;;;6.70;1.35;;;22.30;77.10;;;;;;5049803;28;20029;-67
2023/07/05 11:14:16;;;;;;;5.18;1.48;;;22.40;77.70;;;;;;5049591;28;20141;-68
2023/07/05 11:16:45;;;;;;;4.72;1.17;;;22.40;77.50;;;;;;5049906;28;20436;-68
2023/07/05 11:19:18;;;;;;;4.00;1.40;;;22.30;77.00;;;;;;5049615;28;20260;-69
2023/07/05 11:21:49;;;;;;;5.00;1.70;;;22.10;76.90;;;;;;5047804;28;20041;-68
2023/07/05 11:24:37;;;;;;;4.05;1.60;;;22.10;76.90;;;;;;5045255;28;20053;-67
2023/07/05 11:27:25;;;;;;;6.45;1.65;;;22.10;76.90;;;;;;5030455;28;20087;-72
2023/07/05 11:29:54;;;;;;;2.05;1.27;;;22.10;77.30;;;;;;5030503;28;20368;-67
2023/07/05 11:33:11;;;;;;;5.45;1.58;;;22.30;77.30;;;;;;5030538;28;20084;-70
2023/07/05 11:35:43;;;;;;;3.15;1.27;;;22.20;77.60;;;;;;4991262;28;20043;-67
2023/07/05 11:38:09;;;;;;;3.63;1.42;;;22.30;76.90;;;;;;4991490;28;20049;-67
2023/07/05 11:41:04;;;;;;;7.05;1.73;;;22.20;76.70;;;;;;4991323;28;20031;-67
2023/07/05 11:43:36;;;;;;;3.72;1.67;;;22.40;77.00;;;;;;4982867;28;20042;-66
2023/07/05 11:46:03;;;;;;;3.88;1.23;;;22.10;76.90;;;;;;4991151;28;20419;-68
2023/07/05 11:48:41;;;;;;;1.98;1.05;;;22.20;77.40;;;;;;4991376;28;20027;-67
2023/07/05 11:51:26;;;;;;;3.45;1.20;;;22.20;76.90;;;;;;4989889;28;20031;-66
2023/07/05 11:53:54;;;;;;;2.63;1.50;;;22.00;77.10;;;;;;4989879;28;20465;-68
2023/07/05 11:56:21;;;;;;;2.85;1.10;;;21.80;77.30;;;;;;4990874;28;20421;-65
2023/07/05 11:58:50;;;;;;;4.50;1.27;;;21.70;76.80;;;;;;4991594;28;20010;-67
2023/07/05 12:01:27;;;;;;;3.05;1.40;;;21.40;77.10;;;;;;4991068;28;20276;-68
2023/07/05 12:03:58;;;;;;;4.20;1.40;;;21.10;77.30;;;;;;4990810;28;20031;-68
2023/07/05 12:06:32;;;;;;;2.60;1.30;;;21.20;77.80;;;;;;4989734;28;20487;-70
2023/07/05 12:09:04;;;;;;;6.82;1.65;;;21.10;77.40;;;;;;4991155;28;20030;-69
2023/07/05 12:11:37;;;;;;;4.85;1.40;;;21.00;77.70;;;;;;4993311;28;20025;-67
2023/07/05 12:14:05;;;;;;;4.45;1.30;;;21.00;77.40;;;;;;4994748;28;20077;-69
2023/07/05 12:16:31;;;;;;;2.58;1.25;;;21.00;77.70;;;;;;4993393;28;20031;-68
2023/07/05 12:18:57;;;;;;;5.63;1.75;;;21.10;77.80;;;;;;4993141;28;20042;-68
2023/07/05 12:21:23;;;;;;;2.22;1.25;;;21.30;78.20;;;;;;4993048;28;20058;-69
2023/07/05 12:23:51;;;;;;;5.25;1.20;;;21.50;77.70;;;;;;4993910;28;20046;-67
2023/07/05 12:26:32;;;;;;;5.80;1.77;;;21.50;76.90;;;;;;4994034;28;20114;-68
2023/07/05 12:29:13;;;;;;;3.80;1.35;;;21.70;77.40;;;;;;4994517;28;20056;-67
2023/07/05 12:31:39;;;;;;;5.72;1.30;;;21.60;77.00;;;;;;4994259;28;20109;-66
2023/07/05 12:34:05;;;;;;;4.22;1.40;;;21.60;77.50;;;;;;5005787;28;20042;-68
2023/07/05 12:36:40;;;;;;;7.05;1.27;;;21.60;77.70;;;;;;5013303;28;20030;-69
2023/07/05 12:39:09;;;;;;;4.32;1.20;;;21.60;77.10;;;;;;5013481;28;20057;-68
2023/07/05 12:41:35;;;;;;;4.82;1.30;;;21.60;77.00;;;;;;5013543;28;20057;-69
2023/07/05 12:44:14;;;;;;;5.93;1.65;;;21.50;76.80;;;;;;5013882;28;20072;-66
2023/07/05 12:46:44;;;;;;;1.75;1.40;;;21.60;76.70;;;;;;5033279;28;20034;-66
2023/07/05 12:49:11;;;;;;;4.68;1.23;;;21.40;76.50;;;;;;5017112;28;20034;-68
2023/07/05 12:51:51;;;;;;;2.17;1.08;;;21.30;76.40;;;;;;5023763;28;20030;-70
2023/07/05 12:54:17;;;;;;;5.28;1.63;;;21.10;76.30;;;;;;5032755;28;20053;-68
2023/07/05 12:56:49;;;;;;;5.40;1.33;;;21.00;76.60;;;;;;5032869;28;20072;-69
2023/07/05 12:59:28;;;;;;;6.97;1.58;;;20.80;76.80;;;;;;5033450;28;20033;-68